createdAt,value
2022-09-14T00:00:10.969Z,71.12
2022-09-14T00:02:37.415Z,71.50
2022-09-14T00:05:04.130Z,71.52
2022-09-14T00:07:30.456Z,71.73
2022-09-14T00:12:23.266Z,71.56
2022-09-14T00:17:15.843Z,71.62
2022-09-14T00:19:42.249Z,71.77
2022-09-14T00:22:09.002Z,71.83
2022-09-14T00:24:35.329Z,72.13
2022-09-14T00:29:30.593Z,72.14
2022-09-14T00:31:57.232Z,72.16
2022-09-14T00:34:23.605Z,71.92
2022-09-14T00:36:51.352Z,72.08
2022-09-14T00:46:47.309Z,71.94
2022-09-14T00:49:26.435Z,71.75
2022-09-14T00:52:10.316Z,71.80
2022-09-14T00:57:05.208Z,72.03
2022-09-14T00:59:35.992Z,71.93
2022-09-14T01:02:02.914Z,72.08
2022-09-14T01:04:29.351Z,72.10
2022-09-14T01:07:06.397Z,71.73
2022-09-14T01:09:53.226Z,72.39
2022-09-14T01:12:29.916Z,72.42
2022-09-14T01:15:06.455Z,72.79
2022-09-14T01:17:51.247Z,72.74
2022-09-14T01:20:41.929Z,72.99
2022-09-14T01:23:37.802Z,72.85
2022-09-14T01:38:48.851Z,72.52
2022-09-14T01:43:48.263Z,72.30
2022-09-14T01:46:19.319Z,72.36
2022-09-14T01:48:56.031Z,72.33
2022-09-14T01:51:31.676Z,72.58
2022-09-14T01:59:08.299Z,72.80
2022-09-14T02:01:59.687Z,72.55
2022-09-14T02:04:38.122Z,72.28
2022-09-14T02:07:04.741Z,72.31
2022-09-14T02:12:00.564Z,72.03
2022-09-14T02:14:27.484Z,72.43
2022-09-14T02:16:53.984Z,72.11
2022-09-14T02:19:23.845Z,72.10
2022-09-14T02:24:17.834Z,72.00
2022-09-14T02:26:45.310Z,71.71
2022-09-14T02:32:04.774Z,71.73
2022-09-14T02:34:38.974Z,71.73
2022-09-14T02:37:36.619Z,71.73
2022-09-14T02:40:23.368Z,71.89
2022-09-14T02:43:08.884Z,71.99
2022-09-14T02:46:04.407Z,72.00
2022-09-14T02:53:48.363Z,71.85
2022-09-14T02:56:16.643Z,72.07
2022-09-14T02:58:44.933Z,72.20
2022-09-14T03:01:14.330Z,72.19
2022-09-14T03:03:41.309Z,72.03
2022-09-14T03:08:34.522Z,71.97
2022-09-14T03:13:27.282Z,72.20
2022-09-14T03:18:20.465Z,72.77
2022-09-14T03:20:46.862Z,72.96
2022-09-14T03:23:14.377Z,73.25
2022-09-14T03:25:44.327Z,73.37
2022-09-14T03:28:12.244Z,73.65
2022-09-14T03:33:05.065Z,74.47
2022-09-14T03:37:59.618Z,74.70
2022-09-14T03:40:26.814Z,74.93
2022-09-14T03:47:47.106Z,75.74
2022-09-14T03:55:09.198Z,76.20
2022-09-14T03:57:35.893Z,76.37
2022-09-14T04:07:30.267Z,78.39
2022-09-14T04:09:56.723Z,78.16
2022-09-14T04:14:49.348Z,77.97
2022-09-14T04:17:17.497Z,78.28
2022-09-14T04:19:43.838Z,78.20
2022-09-14T04:22:10.241Z,78.31
2022-09-14T04:27:03.021Z,78.82
2022-09-14T04:29:30.457Z,79.18
2022-09-14T04:34:23.572Z,79.64
2022-09-14T04:36:49.941Z,79.63
2022-09-14T04:39:16.640Z,79.62
2022-09-14T04:44:09.756Z,79.51
2022-09-14T04:46:36.951Z,79.17
2022-09-14T04:49:03.327Z,79.40
2022-09-14T04:51:31.215Z,79.40
2022-09-14T04:53:59.313Z,79.67
2022-09-14T04:56:26.935Z,79.67
2022-09-14T04:58:55.830Z,79.95
2022-09-14T05:01:25.077Z,79.86
2022-09-14T05:03:52.480Z,79.70
2022-09-14T05:08:50.907Z,79.95
2022-09-14T05:16:26.311Z,80.14
2022-09-14T05:18:58.702Z,80.50
2022-09-14T05:21:25.529Z,80.67
2022-09-14T05:28:51.652Z,81.56
2022-09-14T05:33:44.410Z,82.24
2022-09-14T05:36:10.909Z,82.57
2022-09-14T05:41:06.120Z,83.27
2022-09-14T05:43:33.239Z,83.59
2022-09-14T05:46:08.102Z,83.89
2022-09-14T05:53:29.747Z,84.61
2022-09-14T05:56:06.084Z,85.00
2022-09-14T05:58:33.028Z,85.05
2022-09-14T06:00:59.353Z,85.30
2022-09-14T06:05:54.672Z,86.07
2022-09-14T06:08:21.386Z,86.55
2022-09-14T06:10:48.153Z,86.74
2022-09-14T06:13:14.477Z,86.93
2022-09-14T06:18:07.320Z,87.81
2022-09-14T06:20:33.719Z,87.65
2022-09-14T06:23:00.055Z,87.68
2022-09-14T06:25:28.030Z,87.76
2022-09-14T06:27:55.029Z,88.13
2022-09-14T06:30:21.361Z,88.34
2022-09-14T06:32:47.677Z,88.88
2022-09-14T06:35:14.822Z,88.96
2022-09-14T06:37:41.129Z,89.80
2022-09-14T06:40:08.383Z,89.52
2022-09-14T06:42:34.758Z,89.68
2022-09-14T06:45:01.930Z,89.84
2022-09-14T06:47:32.521Z,90.09
2022-09-14T06:49:58.956Z,90.15
2022-09-14T06:52:25.276Z,90.25
2022-09-14T06:57:17.908Z,90.44
2022-09-14T06:59:44.642Z,90.82
2022-09-14T07:02:13.639Z,91.01
2022-09-14T07:07:06.245Z,91.11
2022-09-14T07:09:32.572Z,91.55
2022-09-14T07:11:58.881Z,91.81
2022-09-14T07:19:22.331Z,92.69
2022-09-14T07:21:49.829Z,92.71
2022-09-14T07:24:16.250Z,93.21
2022-09-14T07:26:42.825Z,93.78
2022-09-14T07:29:17.323Z,93.75
2022-09-14T07:34:15.093Z,93.82
2022-09-14T07:39:11.148Z,93.70
2022-09-14T07:41:37.514Z,93.77
2022-09-14T07:44:06.321Z,93.89
2022-09-14T07:46:38.952Z,94.07
2022-09-14T07:51:34.684Z,94.43
2022-09-14T07:54:01.616Z,94.66
2022-09-14T07:56:28.695Z,94.83
2022-09-14T07:59:11.620Z,94.88
2022-09-14T08:04:09.520Z,95.32
2022-09-14T08:06:37.114Z,95.38
2022-09-14T08:09:08.461Z,95.35
2022-09-14T08:11:35.587Z,95.49
2022-09-14T08:14:11.228Z,95.60
2022-09-14T08:16:41.305Z,95.52
2022-09-14T08:19:14.001Z,95.62
2022-09-14T08:21:44.311Z,95.71
2022-09-14T08:24:15.339Z,95.73
2022-09-14T08:26:41.681Z,95.70
2022-09-14T08:29:08.031Z,95.67
2022-09-14T08:31:38.857Z,95.73
2022-09-14T08:34:06.323Z,95.80
2022-09-14T08:36:35.997Z,95.97
2022-09-14T08:46:40.494Z,95.93
2022-09-14T08:51:40.281Z,96.11
2022-09-14T08:54:08.452Z,96.33
2022-09-14T08:56:39.995Z,96.54
2022-09-14T09:02:02.286Z,96.69
2022-09-14T09:04:39.408Z,96.94
2022-09-14T09:07:27.588Z,97.05
2022-09-14T09:09:57.218Z,97.26
2022-09-14T09:12:39.475Z,97.43
2022-09-14T09:15:21.662Z,97.51
2022-09-14T09:17:52.501Z,97.64
2022-09-14T09:20:23.496Z,97.65
2022-09-14T09:23:14.643Z,97.58
2022-09-14T09:25:59.135Z,97.74
2022-09-14T09:28:28.414Z,97.92
2022-09-14T09:30:58.476Z,97.89
2022-09-14T09:33:36.685Z,97.95
2022-09-14T09:36:23.000Z,97.79
2022-09-14T09:41:22.031Z,97.71
2022-09-14T09:48:54.217Z,97.75
2022-09-14T09:51:24.159Z,97.88
2022-09-14T09:53:53.411Z,98.14
2022-09-14T09:56:24.148Z,97.99
2022-09-14T10:01:27.227Z,97.94
2022-09-14T10:04:00.487Z,98.09
2022-09-14T10:06:27.086Z,97.93
2022-09-14T10:08:57.276Z,97.63
2022-09-14T10:11:37.457Z,97.88
2022-09-14T10:14:05.952Z,97.93
2022-09-14T10:16:42.892Z,97.94
2022-09-14T10:19:21.180Z,98.06
2022-09-14T10:22:17.525Z,97.92
2022-09-14T10:24:59.649Z,97.96
2022-09-14T10:27:40.069Z,97.96
2022-09-14T10:30:13.720Z,98.14
2022-09-14T10:32:43.358Z,98.06
2022-09-14T10:35:15.258Z,98.00
2022-09-14T10:38:06.599Z,97.93
2022-09-14T10:40:37.752Z,97.80
2022-09-14T10:43:20.380Z,97.86
2022-09-14T10:45:52.711Z,97.70
2022-09-14T10:51:06.479Z,97.67
2022-09-14T10:53:48.823Z,97.60
2022-09-14T10:56:53.684Z,97.50
2022-09-14T10:59:31.664Z,97.58
2022-09-14T11:02:16.053Z,97.60
2022-09-14T11:07:38.037Z,96.80
2022-09-14T11:13:22.413Z,96.25
2022-09-14T11:16:23.332Z,96.10
2022-09-14T11:19:00.491Z,96.19
2022-09-14T11:21:49.728Z,95.80
2022-09-14T11:24:35.397Z,95.57
2022-09-14T11:27:09.214Z,95.62
2022-09-14T11:29:46.477Z,95.79
2022-09-14T11:37:27.890Z,95.43
2022-09-14T11:40:03.552Z,95.60
2022-09-14T11:45:23.542Z,95.59
2022-09-14T11:47:57.921Z,95.68
2022-09-14T11:50:27.504Z,95.56
2022-09-14T11:53:15.366Z,95.52
2022-09-14T11:55:47.974Z,95.55
2022-09-14T11:58:23.543Z,95.50
2022-09-14T12:00:49.862Z,95.77
2022-09-14T12:03:24.088Z,95.91
2022-09-14T12:05:50.470Z,95.87
2022-09-14T12:08:28.766Z,95.74
2022-09-14T12:11:03.825Z,95.58
2022-09-14T12:13:30.404Z,95.54
2022-09-14T12:16:05.046Z,95.31
2022-09-14T12:31:58.798Z,95.57
2022-09-14T12:34:34.306Z,95.47
2022-09-14T12:37:08.646Z,95.54
2022-09-14T12:39:37.858Z,95.47
2022-09-14T12:42:27.614Z,95.27
2022-09-14T12:44:54.461Z,95.34
2022-09-14T12:47:29.678Z,95.20
2022-09-14T12:49:58.491Z,95.17
2022-09-14T12:52:39.050Z,95.13
2022-09-14T12:55:16.275Z,95.17
2022-09-14T12:57:56.791Z,95.20
2022-09-14T13:00:23.274Z,95.31
2022-09-14T13:03:11.471Z,95.28
2022-09-14T13:05:42.774Z,95.33
2022-09-14T13:08:11.652Z,95.13
2022-09-14T13:10:45.726Z,95.36
2022-09-14T13:13:22.100Z,95.18
2022-09-14T13:15:57.884Z,95.28
2022-09-14T13:20:57.828Z,95.36
2022-09-14T13:23:41.273Z,95.41
2022-09-14T13:26:15.777Z,95.48
2022-09-14T13:28:45.699Z,95.54
2022-09-14T13:31:17.186Z,95.60
2022-09-14T13:33:50.123Z,95.57
2022-09-14T13:36:24.213Z,95.75
2022-09-14T13:38:51.659Z,95.85
2022-09-14T13:41:22.788Z,95.80
2022-09-14T13:43:52.290Z,95.74
2022-09-14T13:48:47.670Z,95.87
2022-09-14T13:51:14.772Z,96.00
2022-09-14T13:53:48.540Z,96.03
2022-09-14T13:56:32.371Z,96.01
2022-09-14T13:59:16.745Z,96.11
2022-09-14T14:01:46.055Z,96.17
2022-09-14T14:07:21.865Z,96.35
2022-09-14T14:09:52.337Z,96.45
2022-09-14T14:12:39.286Z,96.51
2022-09-14T14:15:12.132Z,96.81
2022-09-14T14:20:27.860Z,96.75
2022-09-14T14:25:28.970Z,96.83
2022-09-14T14:32:55.001Z,97.02
2022-09-14T14:37:50.571Z,96.91
2022-09-14T14:40:18.279Z,97.04
2022-09-14T14:42:45.545Z,96.96
2022-09-14T14:45:18.775Z,96.92
2022-09-14T14:47:50.537Z,96.96
2022-09-14T14:50:23.160Z,96.78
2022-09-14T14:52:51.380Z,96.72
2022-09-14T14:55:19.770Z,96.62
2022-09-14T14:57:46.228Z,96.59
2022-09-14T15:00:19.377Z,96.65
2022-09-14T15:02:46.147Z,96.68
2022-09-14T15:05:13.002Z,96.68
2022-09-14T15:07:40.004Z,96.75
2022-09-14T15:10:07.923Z,96.82
2022-09-14T15:12:35.580Z,96.75
2022-09-14T15:15:02.737Z,96.86
2022-09-14T15:17:29.103Z,96.80
2022-09-14T15:19:55.475Z,96.87
2022-09-14T15:24:48.058Z,96.92
2022-09-14T15:27:14.728Z,97.04
2022-09-14T15:29:41.064Z,97.33
2022-09-14T15:32:07.466Z,97.17
2022-09-14T15:37:00.191Z,97.22
2022-09-14T15:39:28.412Z,97.20
2022-09-14T15:44:22.213Z,97.04
2022-09-14T15:46:49.454Z,97.26
2022-09-14T15:49:21.707Z,97.08
2022-09-14T15:51:50.362Z,97.21
2022-09-14T15:54:18.039Z,97.18
2022-09-14T15:56:53.174Z,97.31
2022-09-14T15:59:20.211Z,97.27
2022-09-14T16:04:13.070Z,97.15
2022-09-14T16:06:40.157Z,97.20
2022-09-14T16:09:10.365Z,97.12
2022-09-14T16:14:05.429Z,97.02
2022-09-14T16:21:29.702Z,96.80
2022-09-14T16:24:00.213Z,96.84
2022-09-14T16:26:29.930Z,96.70
2022-09-14T16:28:56.795Z,96.72
2022-09-14T16:31:29.635Z,96.54
2022-09-14T16:33:58.500Z,96.52
2022-09-14T16:36:28.245Z,96.33
2022-09-14T16:43:56.300Z,96.19
2022-09-14T16:46:23.376Z,96.21
2022-09-14T16:48:50.121Z,96.29
2022-09-14T16:51:19.117Z,96.23
2022-09-14T16:53:47.090Z,96.11
2022-09-14T16:56:16.477Z,96.08
2022-09-14T16:58:43.961Z,96.14
2022-09-14T17:01:33.596Z,96.05
2022-09-14T17:04:03.673Z,95.87
2022-09-14T17:11:30.388Z,95.65
2022-09-14T17:13:57.306Z,95.27
2022-09-14T17:23:47.059Z,94.99
2022-09-14T17:28:45.480Z,94.94
2022-09-14T17:31:16.433Z,94.97
2022-09-14T17:33:42.910Z,94.92
2022-09-14T17:38:38.073Z,95.06
2022-09-14T17:41:08.609Z,95.13
2022-09-14T17:43:36.516Z,95.16
2022-09-14T17:46:05.345Z,95.22
2022-09-14T17:48:34.260Z,95.28
2022-09-14T17:51:20.295Z,95.29
2022-09-14T17:53:48.992Z,95.34
2022-09-14T17:56:17.025Z,95.38
2022-09-14T17:58:43.750Z,95.38
2022-09-14T18:01:15.960Z,95.51
2022-09-14T18:08:38.045Z,95.57
2022-09-14T18:16:01.151Z,95.84
2022-09-14T18:18:27.550Z,95.95
2022-09-14T18:20:53.977Z,96.05
2022-09-14T18:23:20.338Z,96.18
2022-09-14T18:25:46.681Z,96.20
2022-09-14T18:28:13.158Z,96.31
2022-09-14T18:30:43.534Z,96.39
2022-09-14T18:35:37.974Z,96.46
2022-09-14T18:40:34.652Z,96.62
2022-09-14T18:43:01.410Z,96.72
2022-09-14T18:45:28.908Z,96.66
2022-09-14T18:47:55.903Z,96.68
2022-09-14T18:50:23.133Z,96.83
2022-09-14T18:52:51.212Z,96.73
2022-09-14T18:55:18.711Z,96.79
2022-09-14T18:57:47.122Z,96.73
2022-09-14T19:00:18.598Z,96.83
2022-09-14T19:05:16.905Z,96.61
2022-09-14T19:07:43.266Z,96.70
2022-09-14T19:10:11.596Z,96.62
2022-09-14T19:12:38.339Z,96.66
2022-09-14T19:15:05.387Z,96.71
2022-09-14T19:17:31.729Z,96.73
2022-09-14T19:19:58.181Z,96.75
2022-09-14T19:22:24.533Z,96.83
2022-09-14T19:24:50.871Z,96.68
2022-09-14T19:29:43.902Z,96.91
2022-09-14T19:34:38.167Z,97.06
2022-09-14T19:37:04.646Z,97.09
2022-09-14T19:39:31.154Z,97.09
2022-09-14T19:41:57.483Z,97.17
2022-09-14T19:44:23.834Z,97.18
2022-09-14T19:46:51.256Z,97.21
2022-09-14T19:49:21.533Z,97.27
2022-09-14T19:51:48.761Z,97.31
2022-09-14T19:54:15.549Z,97.18
2022-09-14T19:56:42.453Z,97.27
2022-09-14T19:59:09.526Z,97.20
2022-09-14T20:01:37.808Z,97.23
2022-09-14T20:04:05.517Z,97.36
2022-09-14T20:06:40.067Z,97.39
2022-09-14T20:09:10.575Z,97.38
2022-09-14T20:14:07.728Z,97.36
2022-09-14T20:21:30.196Z,97.37
2022-09-14T20:24:15.090Z,97.39
2022-09-14T20:26:41.929Z,97.40
2022-09-14T20:29:08.562Z,97.37
2022-09-14T20:31:35.148Z,97.37
2022-09-14T20:34:01.900Z,97.42
2022-09-14T20:38:59.160Z,97.39
2022-09-14T20:41:31.043Z,97.38
2022-09-14T20:43:57.724Z,97.42
2022-09-14T20:48:53.751Z,97.31
2022-09-14T20:56:23.493Z,97.39
2022-09-14T21:01:20.645Z,97.37
2022-09-14T21:03:49.018Z,97.30
2022-09-14T21:06:21.073Z,97.13
2022-09-14T21:08:48.233Z,97.15
2022-09-14T21:11:17.174Z,97.27
2022-09-14T21:13:44.258Z,97.21
2022-09-14T21:16:24.595Z,97.26
2022-09-14T21:21:22.132Z,97.39
2022-09-14T21:23:50.181Z,97.39
2022-09-14T21:26:19.049Z,97.39
2022-09-14T21:28:46.429Z,97.42
2022-09-14T21:31:18.700Z,97.40
2022-09-14T21:33:47.840Z,97.31
2022-09-14T21:36:23.971Z,97.31
2022-09-14T21:38:52.265Z,97.51
2022-09-14T21:41:19.649Z,97.64
2022-09-14T21:43:46.166Z,97.61
2022-09-14T21:46:12.607Z,97.71
2022-09-14T21:48:39.143Z,97.84
2022-09-14T21:53:51.815Z,97.90
2022-09-14T21:56:19.732Z,97.86
2022-09-14T21:58:50.931Z,97.97
2022-09-14T22:01:17.675Z,97.98
2022-09-14T22:03:45.056Z,98.04
2022-09-14T22:06:13.097Z,98.11
2022-09-14T22:11:10.688Z,98.12
2022-09-14T22:16:10.874Z,98.33
2022-09-14T22:18:38.661Z,98.35
2022-09-14T22:21:05.776Z,98.24
2022-09-14T22:23:33.518Z,98.36
2022-09-14T22:28:27.092Z,98.62
2022-09-14T22:30:54.969Z,98.59
2022-09-14T22:33:23.101Z,98.83
2022-09-14T22:35:54.467Z,99.14
2022-09-14T22:41:06.249Z,99.50
2022-09-14T22:46:00.462Z,99.56
2022-09-14T22:48:26.870Z,99.75
2022-09-14T22:53:21.397Z,99.88
2022-09-14T22:55:48.391Z,99.97
2022-09-14T23:03:10.580Z,99.90
2022-09-14T23:05:38.139Z,99.97
2022-09-14T23:08:06.514Z,99.73
2022-09-14T23:13:02.083Z,99.65
2022-09-14T23:15:28.604Z,99.53
2022-09-14T23:17:55.038Z,99.92
2022-09-14T23:20:21.377Z,99.76
2022-09-14T23:22:47.715Z,99.66
2022-09-14T23:25:14.155Z,99.59
2022-09-14T23:27:40.469Z,99.44
2022-09-14T23:30:07.237Z,99.42
2022-09-14T23:32:33.569Z,99.29
2022-09-14T23:35:00.731Z,99.47
2022-09-14T23:37:27.055Z,99.18
2022-09-14T23:39:53.435Z,99.19
2022-09-14T23:42:20.200Z,99.40
2022-09-14T23:44:46.515Z,99.43
2022-09-14T23:47:13.029Z,99.62
2022-09-14T23:52:05.652Z,99.47
2022-09-14T23:56:58.440Z,99.34
2022-09-14T23:59:24.764Z,99.25
